createdAt,value
2017-11-29T00:00:37.357Z,100115.58
2017-11-29T00:02:40.750Z,100120.05
2017-11-29T00:04:44.037Z,100123.69
2017-11-29T00:06:47.431Z,100117.96
2017-11-29T00:08:50.824Z,100118.48
2017-11-29T00:10:54.211Z,100117.96
2017-11-29T00:12:57.530Z,100119.83
2017-11-29T00:15:00.838Z,100119.83
2017-11-29T00:17:04.164Z,100119.83
2017-11-29T00:19:07.534Z,100123.98
2017-11-29T00:21:10.865Z,100121.83
2017-11-29T00:23:14.138Z,100122.34
2017-11-29T00:25:17.531Z,100114.23
2017-11-29T00:27:20.881Z,100115.59
2017-11-29T00:29:24.186Z,100115.59
2017-11-29T00:31:27.621Z,100116.94
2017-11-29T00:33:30.918Z,100112.05
2017-11-29T00:35:34.248Z,100112.98
2017-11-29T00:37:37.633Z,100108.00
2017-11-29T00:39:40.942Z,100112.98
2017-11-29T00:41:44.373Z,100106.84
2017-11-29T00:43:47.768Z,100110.38
2017-11-29T00:45:51.080Z,100112.16
2017-11-29T00:47:54.433Z,100103.73
2017-11-29T00:49:57.777Z,100107.49
2017-11-29T00:52:01.232Z,100107.49
2017-11-29T00:54:04.533Z,100110.20
2017-11-29T00:56:07.853Z,100105.73
2017-11-29T00:58:11.145Z,100109.36
2017-11-29T01:00:14.443Z,100111.64
2017-11-29T01:02:17.822Z,100105.73
2017-11-29T01:04:21.130Z,100105.83
2017-11-29T01:06:24.423Z,100104.16
2017-11-29T01:08:27.745Z,100110.91
2017-11-29T01:10:31.041Z,100110.48
2017-11-29T01:12:34.341Z,100103.22
2017-11-29T01:14:37.742Z,100103.35
2017-11-29T01:16:41.113Z,100101.17
2017-11-29T01:18:45.225Z,100102.52
2017-11-29T01:20:48.624Z,100098.98
2017-11-29T01:22:51.898Z,100101.17
2017-11-29T01:24:55.296Z,100101.58
2017-11-29T01:26:58.648Z,100107.91
2017-11-29T01:29:01.933Z,100113.00
2017-11-29T01:31:05.234Z,100105.73
2017-11-29T01:33:08.550Z,100094.52
2017-11-29T01:35:12.138Z,100103.03
2017-11-29T01:37:15.439Z,100106.76
2017-11-29T01:39:18.769Z,100099.50
2017-11-29T01:41:22.061Z,100103.64
2017-11-29T01:43:25.358Z,100101.87
2017-11-29T01:45:28.705Z,100104.99
2017-11-29T01:47:31.984Z,100103.23
2017-11-29T01:49:35.585Z,100103.64
2017-11-29T01:51:38.908Z,100102.39
2017-11-29T01:53:42.276Z,100110.81
2017-11-29T01:55:45.586Z,100106.44
2017-11-29T01:57:48.965Z,100103.88
2017-11-29T01:59:52.262Z,100098.89
2017-11-29T02:01:55.560Z,100102.52
2017-11-29T02:03:58.979Z,100095.35
2017-11-29T02:06:03.047Z,100103.36
2017-11-29T02:08:06.369Z,100104.80
2017-11-29T02:10:09.761Z,100103.03
2017-11-29T02:12:13.202Z,100108.02
2017-11-29T02:14:16.596Z,100105.73
2017-11-29T02:16:19.914Z,100101.78
2017-11-29T02:18:23.315Z,100101.27
2017-11-29T02:20:26.622Z,100099.08
2017-11-29T02:22:30.060Z,100095.55
2017-11-29T02:24:33.342Z,100097.83
2017-11-29T02:26:36.693Z,100097.31
2017-11-29T02:28:40.113Z,100095.13
2017-11-29T02:30:43.512Z,100091.92
2017-11-29T02:32:46.813Z,100092.02
2017-11-29T02:34:50.138Z,100092.85
2017-11-29T02:36:53.542Z,100098.25
2017-11-29T02:38:56.900Z,100092.02
2017-11-29T02:43:37.382Z,100093.91
2017-11-29T02:45:40.698Z,100090.38
2017-11-29T02:47:44.039Z,100091.31
2017-11-29T02:49:47.483Z,100092.66
2017-11-29T02:51:50.826Z,100086.33
2017-11-29T02:53:54.154Z,100090.80
2017-11-29T02:55:57.449Z,100089.96
2017-11-29T02:58:00.845Z,100090.80
2017-11-29T03:00:04.187Z,100089.86
2017-11-29T03:02:07.486Z,100090.80
2017-11-29T03:04:10.819Z,100088.09
2017-11-29T03:06:14.133Z,100089.86
2017-11-29T03:08:17.548Z,100090.38
2017-11-29T03:10:21.519Z,100092.02
2017-11-29T03:12:24.889Z,100085.39
2017-11-29T03:14:28.295Z,100084.05
2017-11-29T03:16:31.629Z,100085.81
2017-11-29T03:18:34.939Z,100087.27
2017-11-29T03:20:38.227Z,100081.86
2017-11-29T03:22:41.598Z,100078.74
2017-11-29T03:24:44.912Z,100075.53
2017-11-29T03:26:48.221Z,100072.83
2017-11-29T03:28:51.569Z,100078.23
2017-11-29T03:30:54.968Z,100074.28
2017-11-29T03:32:58.262Z,100078.74
2017-11-29T03:35:01.579Z,100073.77
2017-11-29T03:37:05.033Z,100074.80
2017-11-29T03:39:08.425Z,100075.72
2017-11-29T03:41:11.699Z,100076.56
2017-11-29T03:43:15.041Z,100072.09
2017-11-29T03:45:18.432Z,100076.98
2017-11-29T03:47:21.781Z,100073.86
2017-11-29T03:49:25.103Z,100075.72
2017-11-29T03:51:28.543Z,100073.03
2017-11-29T03:53:31.858Z,100073.44
2017-11-29T03:55:35.252Z,100074.37
2017-11-29T03:57:38.643Z,100073.44
2017-11-29T03:59:41.935Z,100068.47
2017-11-29T04:01:45.259Z,100068.98
2017-11-29T04:03:48.612Z,100066.28
2017-11-29T04:05:51.900Z,100068.66
2017-11-29T04:07:55.450Z,100068.05
2017-11-29T04:09:58.794Z,100073.03
2017-11-29T04:12:02.163Z,100070.01
2017-11-29T04:14:05.574Z,100065.44
2017-11-29T04:16:08.964Z,100064.09
2017-11-29T04:18:12.249Z,100068.66
2017-11-29T04:20:15.590Z,100060.98
2017-11-29T04:22:18.926Z,100071.36
2017-11-29T04:24:22.274Z,100060.17
2017-11-29T04:26:25.822Z,100061.39
2017-11-29T04:28:29.143Z,100061.11
2017-11-29T04:30:32.443Z,100054.36
2017-11-29T04:32:35.898Z,100063.80
2017-11-29T04:34:39.176Z,100061.63
2017-11-29T04:36:42.556Z,100068.78
2017-11-29T04:38:45.900Z,100057.16
2017-11-29T04:40:49.258Z,100062.45
2017-11-29T04:42:52.558Z,100057.98
2017-11-29T04:44:55.940Z,100058.50
2017-11-29T04:46:59.242Z,100052.69
2017-11-29T04:49:02.549Z,100055.39
2017-11-29T04:51:05.912Z,100059.02
2017-11-29T04:53:09.404Z,100061.20
2017-11-29T04:55:12.730Z,100059.86
2017-11-29T04:57:16.122Z,100060.78
2017-11-29T04:59:19.417Z,100067.02
2017-11-29T05:01:22.706Z,100061.63
2017-11-29T05:03:26.159Z,100062.55
2017-11-29T05:05:29.445Z,100056.22
2017-11-29T05:07:32.739Z,100060.69
2017-11-29T05:09:36.127Z,100059.44
2017-11-29T05:11:39.405Z,100060.78
2017-11-29T05:13:42.766Z,100064.00
2017-11-29T05:15:46.139Z,100063.59
2017-11-29T05:17:49.636Z,100065.35
2017-11-29T05:19:52.952Z,100065.35
2017-11-29T05:21:56.256Z,100064.00
2017-11-29T05:23:59.565Z,100067.12
2017-11-29T05:26:02.869Z,100064.93
2017-11-29T05:28:06.301Z,100063.07
2017-11-29T05:30:09.652Z,100062.23
2017-11-29T05:32:12.967Z,100063.48
2017-11-29T05:34:16.282Z,100059.53
2017-11-29T05:36:19.665Z,100058.60
2017-11-29T05:38:23.018Z,100065.45
2017-11-29T05:40:26.444Z,100059.53
2017-11-29T05:42:29.818Z,100066.80
2017-11-29T05:44:33.115Z,100066.38
2017-11-29T05:46:36.563Z,100073.96
2017-11-29T05:48:39.861Z,100070.33
2017-11-29T05:50:43.156Z,100072.61
2017-11-29T05:52:46.597Z,100071.78
2017-11-29T05:54:50.001Z,100071.78
2017-11-29T05:56:53.460Z,100070.84
2017-11-29T05:58:56.919Z,100076.66
2017-11-29T06:01:00.316Z,100078.53
2017-11-29T06:03:03.630Z,100071.27
2017-11-29T06:05:06.967Z,100079.78
2017-11-29T06:07:10.253Z,100084.76
2017-11-29T06:09:13.690Z,100085.27
2017-11-29T06:11:17.061Z,100082.06
2017-11-29T06:13:20.458Z,100082.48
2017-11-29T06:15:23.767Z,100083.51
2017-11-29T06:17:27.087Z,100078.95
2017-11-29T06:19:30.468Z,100086.20
2017-11-29T06:21:33.758Z,100100.12
2017-11-29T06:23:37.095Z,100087.17
2017-11-29T06:25:40.506Z,100088.91
2017-11-29T06:27:43.831Z,100088.52
2017-11-29T06:29:47.188Z,100086.62
2017-11-29T06:31:50.545Z,100088.52
2017-11-29T06:33:53.845Z,100084.47
2017-11-29T06:35:57.212Z,100084.47
2017-11-29T06:38:00.545Z,100091.61
2017-11-29T06:40:03.831Z,100091.22
2017-11-29T06:42:07.159Z,100084.57
2017-11-29T06:44:10.614Z,100080.00
2017-11-29T06:46:13.918Z,100087.69
2017-11-29T06:48:17.393Z,100091.22
2017-11-29T06:50:20.677Z,100096.62
2017-11-29T06:52:24.106Z,100092.95
2017-11-29T06:54:27.465Z,100099.19
2017-11-29T06:56:30.905Z,100105.52
2017-11-29T06:58:34.262Z,100103.75
2017-11-29T07:00:37.649Z,100103.66
2017-11-29T07:02:41.300Z,100105.42
2017-11-29T07:04:44.601Z,100104.91
2017-11-29T07:06:47.980Z,100105.94
2017-11-29T07:08:51.311Z,100110.72
2017-11-29T07:10:54.612Z,100108.02
2017-11-29T07:12:57.947Z,100116.13
2017-11-29T07:15:01.283Z,100119.66
2017-11-29T07:17:04.619Z,100124.55
2017-11-29T07:19:08.075Z,100123.19
2017-11-29T07:21:11.366Z,100123.19
2017-11-29T07:23:14.686Z,100126.18
2017-11-29T07:25:17.999Z,100123.99
2017-11-29T07:27:21.308Z,100123.06
2017-11-29T07:29:24.647Z,100123.48
2017-11-29T07:31:28.020Z,100124.73
2017-11-29T07:33:31.501Z,100122.97
2017-11-29T07:35:34.777Z,100129.62
2017-11-29T07:37:38.130Z,100131.06
2017-11-29T07:39:41.539Z,100130.55
2017-11-29T07:41:44.843Z,100132.73
2017-11-29T07:43:48.258Z,100134.59
2017-11-29T07:45:52.047Z,100133.57
2017-11-29T07:47:55.507Z,100137.11
2017-11-29T07:49:58.945Z,100143.30
2017-11-29T07:52:02.270Z,100137.81
2017-11-29T07:54:05.586Z,100138.13
2017-11-29T07:56:08.934Z,100139.67
2017-11-29T07:58:12.352Z,100139.58
2017-11-29T08:00:15.719Z,100142.08
2017-11-29T08:02:19.045Z,100144.14
2017-11-29T08:04:22.610Z,100143.94
2017-11-29T08:06:25.914Z,100148.83
2017-11-29T08:08:29.265Z,100141.84
2017-11-29T08:10:32.579Z,100144.36
2017-11-29T08:12:35.947Z,100148.59
2017-11-29T08:14:39.310Z,100139.98
2017-11-29T08:16:42.677Z,100144.45
2017-11-29T08:18:46.127Z,100141.14
2017-11-29T08:20:49.657Z,100141.01
2017-11-29T08:22:53.062Z,100146.63
2017-11-29T08:24:56.438Z,100143.83
2017-11-29T08:27:00.109Z,100149.94
2017-11-29T08:29:03.490Z,100148.69
2017-11-29T08:31:06.774Z,100154.51
2017-11-29T08:33:10.110Z,100153.07
2017-11-29T08:35:13.434Z,100160.14
2017-11-29T08:37:16.726Z,100159.22
2017-11-29T08:39:20.070Z,100164.39
2017-11-29T08:41:23.441Z,100158.38
2017-11-29T08:43:26.749Z,100152.47
2017-11-29T08:45:30.083Z,100160.72
2017-11-29T08:47:33.507Z,100164.86
2017-11-29T08:49:36.791Z,100168.39
2017-11-29T08:51:40.137Z,100168.11
2017-11-29T08:53:43.526Z,100168.66
2017-11-29T08:55:47.847Z,100170.20
2017-11-29T08:57:51.284Z,100176.53
2017-11-29T08:59:54.777Z,100175.70
2017-11-29T09:01:58.126Z,100180.80
2017-11-29T09:04:01.454Z,100185.38
2017-11-29T09:06:04.753Z,100189.94
2017-11-29T09:08:08.138Z,100193.66
2017-11-29T09:10:11.476Z,100190.67
2017-11-29T09:12:14.779Z,100197.20
2017-11-29T09:14:18.208Z,100197.20
2017-11-29T09:16:21.620Z,100193.80
2017-11-29T09:18:24.950Z,100193.89
2017-11-29T09:20:28.280Z,100201.25
2017-11-29T09:22:31.642Z,100197.01
2017-11-29T09:24:35.099Z,100196.27
2017-11-29T09:26:38.377Z,100196.49
2017-11-29T09:28:41.733Z,100191.28
2017-11-29T09:30:45.050Z,100186.08
2017-11-29T09:32:48.363Z,100200.64
2017-11-29T09:34:51.674Z,100190.45
2017-11-29T09:36:54.977Z,100198.35
2017-11-29T09:38:58.390Z,100203.02
2017-11-29T09:41:02.693Z,100195.00
2017-11-29T09:43:06.070Z,100194.30
2017-11-29T09:45:09.445Z,100192.20
2017-11-29T09:47:12.967Z,100191.46
2017-11-29T09:49:16.274Z,100199.27
2017-11-29T09:51:19.673Z,100193.22
2017-11-29T09:53:22.992Z,100198.75
2017-11-29T09:55:26.365Z,100207.14
2017-11-29T09:57:29.665Z,100206.44
2017-11-29T09:59:33.015Z,100199.03
2017-11-29T10:01:36.344Z,100203.83
2017-11-29T10:03:39.666Z,100208.06
2017-11-29T10:05:43.031Z,100201.02
2017-11-29T10:07:46.348Z,100204.36
2017-11-29T10:09:49.814Z,100205.10
2017-11-29T10:11:53.282Z,100206.32
2017-11-29T10:13:56.675Z,100203.84
2017-11-29T10:16:01.525Z,100196.44
2017-11-29T10:18:04.933Z,100197.50
2017-11-29T10:20:08.282Z,100194.70
2017-11-29T10:22:11.587Z,100189.48
2017-11-29T10:24:14.928Z,100194.37
2017-11-29T10:26:18.250Z,100185.23
2017-11-29T10:28:21.656Z,100189.89
2017-11-29T10:30:25.056Z,100187.38
2017-11-29T10:32:28.428Z,100187.18
2017-11-29T10:34:32.771Z,100185.21
2017-11-29T10:36:36.177Z,100176.45
2017-11-29T10:38:39.457Z,100178.03
2017-11-29T10:40:42.789Z,100176.45
2017-11-29T10:42:46.121Z,100178.95
2017-11-29T10:44:49.444Z,100179.55
2017-11-29T10:46:52.913Z,100173.22
2017-11-29T10:48:56.389Z,100174.75
2017-11-29T10:50:59.753Z,100167.90
2017-11-29T10:53:03.165Z,100171.86
2017-11-29T10:55:06.481Z,100173.52
2017-11-29T10:57:09.965Z,100168.41
2017-11-29T10:59:13.245Z,100169.56
2017-11-29T11:01:16.605Z,100158.13
2017-11-29T11:03:20.085Z,100157.30
2017-11-29T11:05:23.434Z,100156.64
2017-11-29T11:07:26.778Z,100152.59
2017-11-29T11:09:30.114Z,100158.63
2017-11-29T11:11:33.530Z,100153.64
2017-11-29T11:13:36.874Z,100153.41
2017-11-29T11:15:40.166Z,100155.50
2017-11-29T11:17:43.597Z,100153.91
2017-11-29T11:19:46.938Z,100156.62
2017-11-29T11:21:50.314Z,100158.70
2017-11-29T11:23:53.711Z,100153.20
2017-11-29T11:25:57.088Z,100155.67
2017-11-29T11:28:01.203Z,100155.98
2017-11-29T11:30:04.629Z,100159.81
2017-11-29T11:32:07.969Z,100153.37
2017-11-29T11:34:11.340Z,100154.62
2017-11-29T11:36:14.653Z,100150.56
2017-11-29T11:38:18.096Z,100143.28
2017-11-29T11:40:21.533Z,100148.87
2017-11-29T11:42:24.827Z,100146.59
2017-11-29T11:44:28.174Z,100146.91
2017-11-29T11:46:31.528Z,100141.40
2017-11-29T11:48:34.989Z,100142.09
2017-11-29T11:50:38.339Z,100135.24
2017-11-29T11:52:41.733Z,100137.84
2017-11-29T11:54:45.032Z,100133.78
2017-11-29T11:56:48.467Z,100131.91
2017-11-29T11:58:51.763Z,100134.08
2017-11-29T12:00:55.104Z,100138.45
2017-11-29T12:02:58.459Z,100133.45
2017-11-29T12:05:01.917Z,100126.59
2017-11-29T12:07:05.246Z,100135.13
2017-11-29T12:09:08.764Z,100132.19
2017-11-29T12:11:12.128Z,100125.94
2017-11-29T12:13:15.510Z,100129.61
2017-11-29T12:15:18.827Z,100120.02
2017-11-29T12:17:22.215Z,100123.23
2017-11-29T12:19:25.536Z,100129.06
2017-11-29T12:21:28.838Z,100119.73
2017-11-29T12:23:32.199Z,100121.59
2017-11-29T12:25:35.531Z,100122.53
2017-11-29T12:27:38.906Z,100122.95
2017-11-29T12:29:42.272Z,100122.64
2017-11-29T12:31:45.664Z,100118.58
2017-11-29T12:33:49.009Z,100127.11
2017-11-29T12:35:52.344Z,100127.73
2017-11-29T12:37:55.671Z,100128.66
2017-11-29T12:39:58.986Z,100128.80
2017-11-29T12:42:02.381Z,100122.97
2017-11-29T12:44:05.758Z,100125.45
2017-11-29T12:46:09.066Z,100119.63
2017-11-29T12:48:24.474Z,100126.52
2017-11-29T12:53:07.140Z,100127.56
2017-11-29T12:55:10.451Z,100132.03
2017-11-29T12:57:13.822Z,100119.45
2017-11-29T12:59:17.170Z,100118.20
2017-11-29T13:01:20.467Z,100116.33
2017-11-29T13:03:23.852Z,100119.97
2017-11-29T13:05:28.833Z,100124.95
2017-11-29T13:07:32.093Z,100124.86
2017-11-29T13:09:35.398Z,100121.73
2017-11-29T13:11:38.852Z,100116.75
2017-11-29T13:13:42.147Z,100122.67
2017-11-29T13:15:45.472Z,100117.68
2017-11-29T13:17:48.801Z,100122.67
2017-11-29T13:19:52.152Z,100120.20
2017-11-29T13:21:55.451Z,100119.66
2017-11-29T13:23:58.893Z,100115.31
2017-11-29T13:26:02.234Z,100121.23
2017-11-29T13:28:05.869Z,100113.64
2017-11-29T13:30:09.197Z,100116.86
2017-11-29T13:32:13.439Z,100121.02
2017-11-29T13:34:16.742Z,100115.33
2017-11-29T13:36:20.213Z,100115.42
2017-11-29T13:38:23.764Z,100121.35
2017-11-29T13:40:27.190Z,100115.53
2017-11-29T13:42:30.690Z,100113.86
2017-11-29T13:44:33.978Z,100114.83
2017-11-29T13:46:37.383Z,100113.86
2017-11-29T13:48:40.710Z,100120.62
2017-11-29T13:50:44.055Z,100112.92
2017-11-29T13:52:47.455Z,100112.51
2017-11-29T13:54:50.812Z,100116.98
2017-11-29T13:56:54.213Z,100119.27
2017-11-29T13:58:57.648Z,100119.69
2017-11-29T14:01:00.977Z,100125.51
2017-11-29T14:03:04.350Z,100127.80
2017-11-29T14:05:07.708Z,100129.14
2017-11-29T14:07:11.077Z,100132.27
2017-11-29T14:09:14.391Z,100137.67
2017-11-29T14:11:17.705Z,100133.00
2017-11-29T14:13:21.319Z,100134.36
2017-11-29T14:15:24.646Z,100130.30
2017-11-29T14:17:28.086Z,100132.07
2017-11-29T14:19:31.700Z,100137.16
2017-11-29T14:21:35.067Z,100139.45
2017-11-29T14:23:38.382Z,100138.09
2017-11-29T14:25:41.699Z,100142.98
2017-11-29T14:27:45.031Z,100137.99
2017-11-29T14:29:48.456Z,100139.86
2017-11-29T14:31:51.948Z,100140.70
2017-11-29T14:33:55.250Z,100138.09
2017-11-29T14:35:58.560Z,100146.02
2017-11-29T14:38:01.916Z,100141.75
2017-11-29T14:40:05.271Z,100148.22
2017-11-29T14:42:08.598Z,100144.69
2017-11-29T14:44:11.926Z,100146.03
2017-11-29T14:46:15.385Z,100143.43
2017-11-29T14:48:18.669Z,100148.52
2017-11-29T14:50:22.022Z,100144.98
2017-11-29T14:52:25.330Z,100142.83
2017-11-29T14:54:28.674Z,100149.27
2017-11-29T14:56:32.047Z,100141.58
2017-11-29T14:58:35.431Z,100149.78
2017-11-29T15:00:38.844Z,100152.48
2017-11-29T15:02:42.155Z,100148.95
2017-11-29T15:04:45.486Z,100149.88
2017-11-29T15:06:48.797Z,100147.19
2017-11-29T15:08:52.253Z,100145.83
2017-11-29T15:10:55.566Z,100142.70
2017-11-29T15:12:58.898Z,100140.55
2017-11-29T15:15:02.364Z,100145.13
2017-11-29T15:17:05.956Z,100144.19
2017-11-29T15:19:09.289Z,100144.19
2017-11-29T15:21:12.702Z,100143.64
2017-11-29T15:23:16.002Z,100144.71
2017-11-29T15:25:19.400Z,100144.71
2017-11-29T15:27:22.737Z,100144.71
2017-11-29T15:29:26.101Z,100148.25
2017-11-29T15:31:29.373Z,100143.78
2017-11-29T15:33:32.702Z,100146.06
2017-11-29T15:35:36.012Z,100150.63
2017-11-29T15:37:39.344Z,100151.05
2017-11-29T15:39:42.666Z,100153.34
2017-11-29T15:41:45.982Z,100156.98
2017-11-29T15:43:49.401Z,100156.14
2017-11-29T15:45:52.722Z,100149.80
2017-11-29T15:47:56.154Z,100155.20
2017-11-29T15:49:59.615Z,100156.55
2017-11-29T15:52:02.939Z,100154.38
2017-11-29T15:54:06.334Z,100147.61
2017-11-29T15:56:09.781Z,100155.20
2017-11-29T15:58:13.108Z,100154.38
2017-11-29T16:00:16.427Z,100154.38
2017-11-29T16:02:19.854Z,100154.38
2017-11-29T16:04:23.192Z,100158.01
2017-11-29T16:06:26.491Z,100161.23
2017-11-29T16:08:29.798Z,100159.88
2017-11-29T16:10:33.248Z,100157.59
2017-11-29T16:12:36.542Z,100161.23
2017-11-29T16:14:39.837Z,100163.83
2017-11-29T16:16:43.166Z,100163.83
2017-11-29T16:18:46.499Z,100166.95
2017-11-29T16:20:49.788Z,100163.83
2017-11-29T16:22:53.532Z,100167.47
2017-11-29T16:24:56.958Z,100166.85
2017-11-29T16:27:00.304Z,100173.71
2017-11-29T16:29:03.658Z,100178.19
2017-11-29T16:31:07.031Z,100174.55
2017-11-29T16:33:10.314Z,100174.55
2017-11-29T16:35:13.700Z,100180.78
2017-11-29T16:37:17.028Z,100177.25
2017-11-29T16:39:20.339Z,100185.36
2017-11-29T16:41:23.660Z,100180.05
2017-11-29T16:43:26.993Z,100190.03
2017-11-29T16:45:30.282Z,100181.50
2017-11-29T16:47:33.663Z,100182.98
2017-11-29T16:49:36.978Z,100187.14
2017-11-29T16:51:40.294Z,100175.08
2017-11-29T16:53:43.664Z,100176.01
2017-11-29T16:55:46.974Z,100181.64
2017-11-29T16:57:50.309Z,100184.77
2017-11-29T16:59:53.651Z,100184.45
2017-11-29T17:01:57.034Z,100181.84
2017-11-29T17:04:00.338Z,100186.13
2017-11-29T17:06:03.747Z,100192.88
2017-11-29T17:08:07.119Z,100188.93
2017-11-29T17:10:11.314Z,100188.52
2017-11-29T17:12:14.867Z,100184.66
2017-11-29T17:14:18.947Z,100188.30
2017-11-29T17:16:22.358Z,100193.41
2017-11-29T17:18:25.751Z,100193.51
2017-11-29T17:20:29.085Z,100191.42
2017-11-29T17:22:32.394Z,100196.41
2017-11-29T17:24:35.726Z,100191.14
2017-11-29T17:26:39.153Z,100191.66
2017-11-29T17:28:42.454Z,100193.09
2017-11-29T17:30:46.075Z,100196.32
2017-11-29T17:32:49.365Z,100203.08
2017-11-29T17:34:52.687Z,100199.77
2017-11-29T17:36:56.035Z,100200.28
2017-11-29T17:38:59.310Z,100201.73
2017-11-29T17:41:02.697Z,100202.15
2017-11-29T17:43:06.058Z,100204.02
2017-11-29T17:45:09.368Z,100207.23
2017-11-29T17:47:12.760Z,100208.30
2017-11-29T17:49:16.132Z,100207.46
2017-11-29T17:51:20.748Z,100205.80
2017-11-29T17:53:24.075Z,100207.14
2017-11-29T17:55:27.426Z,100209.56
2017-11-29T17:57:30.734Z,100213.06
2017-11-29T17:59:34.104Z,100211.01
2017-11-29T18:01:37.458Z,100211.94
2017-11-29T18:03:40.782Z,100215.58
2017-11-29T18:05:44.129Z,100218.38
2017-11-29T18:07:47.509Z,100223.87
2017-11-29T18:09:50.912Z,100223.46
2017-11-29T18:11:54.213Z,100228.48
2017-11-29T18:13:57.710Z,100219.64
2017-11-29T18:16:01.009Z,100219.64
2017-11-29T18:18:04.341Z,100214.75
2017-11-29T18:20:07.813Z,100220.15
2017-11-29T18:22:11.219Z,100216.61
2017-11-29T18:24:14.604Z,100222.53
2017-11-29T18:26:17.943Z,100219.96
2017-11-29T18:28:21.272Z,100223.17
2017-11-29T18:30:24.679Z,100221.48
2017-11-29T18:32:27.997Z,100229.09
2017-11-29T18:34:31.285Z,100228.75
2017-11-29T18:36:34.646Z,100230.09
2017-11-29T18:38:37.972Z,100235.59
2017-11-29T18:40:41.328Z,100231.55
2017-11-29T18:42:44.628Z,100238.43
2017-11-29T18:44:48.053Z,100239.88
2017-11-29T18:46:51.451Z,100243.93
2017-11-29T18:48:54.832Z,100244.96
2017-11-29T18:50:58.144Z,100253.06
2017-11-29T18:53:01.482Z,100246.41
2017-11-29T18:55:04.758Z,100251.94
2017-11-29T18:57:08.082Z,100250.17
2017-11-29T18:59:11.371Z,100253.80
2017-11-29T19:01:14.861Z,100246.22
2017-11-29T19:03:18.171Z,100249.34
2017-11-29T19:05:21.466Z,100248.59
2017-11-29T19:07:24.757Z,100254.52
2017-11-29T19:09:28.138Z,100257.22
2017-11-29T19:11:31.461Z,100257.34
2017-11-29T19:13:34.830Z,100261.08
2017-11-29T19:15:38.273Z,100257.95
2017-11-29T19:17:41.563Z,100258.38
2017-11-29T19:19:44.870Z,100257.95
2017-11-29T19:21:48.198Z,100254.94
2017-11-29T19:23:51.499Z,100261.69
2017-11-29T19:25:54.830Z,100262.23
2017-11-29T19:27:58.164Z,100265.88
2017-11-29T19:30:01.474Z,100256.93
2017-11-29T19:32:04.793Z,100258.38
2017-11-29T19:34:08.121Z,100264.20
2017-11-29T19:36:11.396Z,100265.97
2017-11-29T19:38:14.716Z,100267.83
2017-11-29T19:40:18.154Z,100269.70
2017-11-29T19:42:22.402Z,100269.70
2017-11-29T19:44:25.834Z,100270.22
2017-11-29T19:46:29.559Z,100268.58
2017-11-29T19:48:33.167Z,100270.86
2017-11-29T19:50:36.560Z,100274.48
2017-11-29T19:52:39.884Z,100275.42
2017-11-29T19:54:43.186Z,100279.89
2017-11-29T19:56:46.724Z,100274.48
2017-11-29T19:58:51.633Z,100272.81
2017-11-29T20:00:55.278Z,100276.45
2017-11-29T20:02:58.638Z,100279.38
2017-11-29T20:05:01.962Z,100281.53
2017-11-29T20:07:05.273Z,100279.47
2017-11-29T20:09:08.594Z,100280.83
2017-11-29T20:11:11.946Z,100280.41
2017-11-29T20:13:15.296Z,100277.28
2017-11-29T20:15:18.687Z,100276.45
2017-11-29T20:17:22.190Z,100276.36
2017-11-29T20:19:25.495Z,100276.97
2017-11-29T20:21:28.779Z,100269.38
2017-11-29T20:23:32.184Z,100279.38
2017-11-29T20:25:35.538Z,100280.31
2017-11-29T20:27:38.838Z,100274.91
2017-11-29T20:29:42.199Z,100274.48
2017-11-29T20:31:45.491Z,100266.48
2017-11-29T20:33:48.806Z,100265.97
2017-11-29T20:35:52.160Z,100265.13
2017-11-29T20:37:55.466Z,100266.58
2017-11-29T20:39:58.833Z,100261.82
2017-11-29T20:42:02.171Z,100267.52
2017-11-29T20:44:05.470Z,100271.27
2017-11-29T20:46:08.812Z,100272.50
2017-11-29T20:48:12.176Z,100274.39
2017-11-29T20:50:15.528Z,100281.66
2017-11-29T20:52:19.527Z,100271.47
2017-11-29T20:54:22.897Z,100281.34
2017-11-29T20:56:26.218Z,100278.64
2017-11-29T20:58:29.601Z,100283.20
2017-11-29T21:00:32.959Z,100286.83
2017-11-29T21:02:36.259Z,100280.59
2017-11-29T21:04:39.660Z,100285.19
2017-11-29T21:06:42.992Z,100292.88
2017-11-29T21:08:46.443Z,100282.59
2017-11-29T21:10:50.570Z,100281.75
2017-11-29T21:12:53.870Z,100279.47
2017-11-29T21:14:57.212Z,100283.61
2017-11-29T21:17:00.563Z,100282.36
2017-11-29T21:19:04.136Z,100285.38
2017-11-29T21:21:07.525Z,100285.61
2017-11-29T21:23:10.919Z,100276.55
2017-11-29T21:25:14.238Z,100282.48
2017-11-29T21:27:17.560Z,100278.44
2017-11-29T21:29:20.925Z,100273.13
2017-11-29T21:31:24.327Z,100277.70
2017-11-29T21:33:27.630Z,100273.97
2017-11-29T21:35:30.945Z,100271.05
2017-11-29T21:37:34.349Z,100269.27
2017-11-29T21:39:37.677Z,100275.52
2017-11-29T21:41:41.140Z,100275.09
2017-11-29T21:43:44.542Z,100271.05
2017-11-29T21:45:47.858Z,100273.84
2017-11-29T21:47:51.153Z,100269.08
2017-11-29T21:49:54.474Z,100274.90
2017-11-29T21:51:57.765Z,100269.59
2017-11-29T21:54:01.102Z,100277.28
2017-11-29T21:56:04.424Z,100269.59
2017-11-29T21:58:07.734Z,100271.78
2017-11-29T22:00:11.038Z,100268.76
2017-11-29T22:02:14.395Z,100266.98
2017-11-29T22:04:17.707Z,100269.40
2017-11-29T22:06:21.016Z,100264.94
2017-11-29T22:08:24.354Z,100271.78
2017-11-29T22:10:27.765Z,100266.38
2017-11-29T22:12:31.193Z,100270.42
2017-11-29T22:14:34.521Z,100275.51
2017-11-29T22:16:37.950Z,100281.33
2017-11-29T22:18:41.357Z,100284.95
2017-11-29T22:20:44.855Z,100276.44
2017-11-29T22:22:48.172Z,100281.00
2017-11-29T22:24:51.474Z,100277.08
2017-11-29T22:26:54.795Z,100280.20
2017-11-29T22:28:58.099Z,100278.43
2017-11-29T22:31:01.429Z,100279.36
2017-11-29T22:33:04.844Z,100280.39
2017-11-29T22:35:08.246Z,100279.45
2017-11-29T22:37:11.653Z,100291.19
2017-11-29T22:39:15.099Z,100284.53
2017-11-29T22:41:18.378Z,100284.12
2017-11-29T22:43:21.686Z,100282.34
2017-11-29T22:45:25.097Z,100280.20
2017-11-29T22:47:28.417Z,100282.89
2017-11-29T22:49:31.807Z,100281.93
2017-11-29T22:51:35.105Z,100278.94
2017-11-29T22:53:38.438Z,100277.17
2017-11-29T22:55:41.755Z,100273.12
2017-11-29T22:57:45.180Z,100275.82
2017-11-29T22:59:48.505Z,100274.98
2017-11-29T23:01:51.813Z,100282.67
2017-11-29T23:03:55.124Z,100278.20
2017-11-29T23:05:58.431Z,100278.71
2017-11-29T23:08:01.804Z,100279.64
2017-11-29T23:10:05.241Z,100289.64
2017-11-29T23:12:08.541Z,100287.03
2017-11-29T23:14:11.945Z,100289.31
2017-11-29T23:16:15.315Z,100289.31
2017-11-29T23:18:18.601Z,100287.97
2017-11-29T23:20:21.890Z,100293.46
2017-11-29T23:22:25.992Z,100282.66
2017-11-29T23:24:29.340Z,100285.36
2017-11-29T23:26:32.645Z,100283.59
2017-11-29T23:28:36.006Z,100287.64
2017-11-29T23:30:39.301Z,100276.84
2017-11-29T23:32:42.606Z,100275.50